createdAt,value
2018-12-21T00:00:45.823Z,8.20
2018-12-21T00:01:45.799Z,8.05
2018-12-21T00:02:45.772Z,8.08
2018-12-21T00:03:45.742Z,8.06
2018-12-21T00:04:45.720Z,8.08
2018-12-21T00:05:45.696Z,8.06
2018-12-21T00:06:45.670Z,8.05
2018-12-21T00:07:45.646Z,8.02
2018-12-21T00:08:45.622Z,8.03
2018-12-21T00:09:45.598Z,8.11
2018-12-21T00:10:45.625Z,8.21
2018-12-21T00:11:45.551Z,8.17
2018-12-21T00:12:45.526Z,8.16
2018-12-21T00:13:45.502Z,8.20
2018-12-21T00:14:45.479Z,8.20
2018-12-21T00:15:45.456Z,8.21
2018-12-21T00:16:45.429Z,8.20
2018-12-21T00:17:45.479Z,8.18
2018-12-21T00:18:45.385Z,8.16
2018-12-21T00:19:45.363Z,8.18
2018-12-21T00:20:45.335Z,8.20
2018-12-21T00:21:45.310Z,8.18
2018-12-21T00:22:45.284Z,8.09
2018-12-21T00:23:45.261Z,8.21
2018-12-21T00:24:45.235Z,8.13
2018-12-21T00:25:45.210Z,8.13
2018-12-21T00:26:45.188Z,8.20
2018-12-21T00:27:45.165Z,8.24
2018-12-21T00:28:45.140Z,8.08
2018-12-21T00:29:45.114Z,8.21
2018-12-21T00:30:45.092Z,8.21
2018-12-21T00:31:45.065Z,8.20
2018-12-21T00:32:45.042Z,8.21
2018-12-21T00:33:45.018Z,8.20
2018-12-21T00:34:44.994Z,8.08
2018-12-21T00:35:44.970Z,8.21
2018-12-21T00:36:44.945Z,8.16
2018-12-21T00:37:44.928Z,8.18
2018-12-21T00:38:44.904Z,8.17
2018-12-21T00:39:44.878Z,8.09
2018-12-21T00:40:44.851Z,8.20
2018-12-21T00:41:44.826Z,8.17
2018-12-21T00:42:44.803Z,8.17
2018-12-21T00:43:44.778Z,8.20
2018-12-21T00:44:44.753Z,8.18
2018-12-21T00:45:44.728Z,8.20
2018-12-21T00:46:44.741Z,8.17
2018-12-21T00:47:44.681Z,8.18
2018-12-21T00:48:44.660Z,8.18
2018-12-21T00:49:44.633Z,8.34
2018-12-21T00:50:44.607Z,8.20
2018-12-21T00:51:44.584Z,8.20
2018-12-21T00:52:44.561Z,8.21
2018-12-21T00:53:44.534Z,8.18
2018-12-21T00:54:44.512Z,8.17
2018-12-21T00:55:44.487Z,8.18
2018-12-21T00:56:44.463Z,8.18
2018-12-21T00:57:44.439Z,8.14
2018-12-21T00:58:44.416Z,8.31
2018-12-21T00:59:44.393Z,8.18
2018-12-21T01:00:44.366Z,8.20
2018-12-21T01:01:44.342Z,8.21
2018-12-21T01:02:44.319Z,8.21
2018-12-21T01:03:44.294Z,8.35
2018-12-21T01:04:44.271Z,8.24
2018-12-21T01:05:44.246Z,8.27
2018-12-21T01:06:44.224Z,8.24
2018-12-21T01:07:44.199Z,8.31
2018-12-21T01:08:44.176Z,8.24
2018-12-21T01:09:44.153Z,8.27
2018-12-21T01:10:44.127Z,8.32
2018-12-21T01:11:44.103Z,8.28
2018-12-21T01:12:44.078Z,8.23
2018-12-21T01:13:44.056Z,8.36
2018-12-21T01:14:44.030Z,8.27
2018-12-21T01:15:44.004Z,8.26
2018-12-21T01:16:43.981Z,8.21
2018-12-21T01:17:43.957Z,8.20
2018-12-21T01:18:43.933Z,8.24
2018-12-21T01:19:43.909Z,8.32
2018-12-21T01:20:43.885Z,8.38
2018-12-21T01:21:43.861Z,8.34
2018-12-21T01:22:43.837Z,8.32
2018-12-21T01:23:43.813Z,8.32
2018-12-21T01:24:43.789Z,8.31
2018-12-21T01:25:43.763Z,8.28
2018-12-21T01:26:43.743Z,8.27
2018-12-21T01:27:43.722Z,8.27
2018-12-21T01:28:43.692Z,8.38
2018-12-21T01:29:43.669Z,8.31
2018-12-21T01:30:43.645Z,8.32
2018-12-21T01:31:43.622Z,8.39
2018-12-21T01:32:43.597Z,8.32
2018-12-21T01:33:43.571Z,8.32
2018-12-21T01:34:43.547Z,8.44
2018-12-21T01:35:43.522Z,8.44
2018-12-21T01:36:43.522Z,8.39
2018-12-21T01:37:43.475Z,8.35
2018-12-21T01:38:43.450Z,8.39
2018-12-21T01:39:43.427Z,8.32
2018-12-21T01:40:43.403Z,8.38
2018-12-21T01:41:43.378Z,8.36
2018-12-21T01:42:43.358Z,8.38
2018-12-21T01:43:43.330Z,8.42
2018-12-21T01:44:43.311Z,8.50
2018-12-21T01:45:43.281Z,8.42
2018-12-21T01:46:43.258Z,8.42
2018-12-21T01:47:43.235Z,8.46
2018-12-21T01:48:43.215Z,8.31
2018-12-21T01:49:43.265Z,8.42
2018-12-21T01:50:43.187Z,8.42
2018-12-21T01:51:47.035Z,8.42
2018-12-21T01:52:43.116Z,8.38
2018-12-21T01:53:43.091Z,8.38
2018-12-21T01:54:43.065Z,8.34
2018-12-21T01:55:43.044Z,8.41
2018-12-21T01:56:43.017Z,8.42
2018-12-21T01:57:42.994Z,8.38
2018-12-21T01:58:42.970Z,8.41
2018-12-21T01:59:42.944Z,8.36
2018-12-21T02:00:42.944Z,8.39
2018-12-21T02:01:42.897Z,8.39
2018-12-21T02:02:42.873Z,8.38
2018-12-21T02:03:42.851Z,8.32
2018-12-21T02:04:42.825Z,8.31
2018-12-21T02:05:42.800Z,8.31
2018-12-21T02:06:42.776Z,8.34
2018-12-21T02:07:42.753Z,8.38
2018-12-21T02:08:42.733Z,8.38
2018-12-21T02:09:42.710Z,8.44
2018-12-21T02:10:42.682Z,8.41
2018-12-21T02:11:42.657Z,8.42
2018-12-21T02:12:42.633Z,8.39
2018-12-21T02:13:42.608Z,8.39
2018-12-21T02:14:42.584Z,8.44
2018-12-21T02:15:42.561Z,8.41
2018-12-21T02:16:42.536Z,8.38
2018-12-21T02:17:42.511Z,8.42
2018-12-21T02:18:42.489Z,8.42
2018-12-21T02:19:42.465Z,8.50
2018-12-21T02:20:42.441Z,8.49
2018-12-21T02:21:42.415Z,8.45
2018-12-21T02:22:42.392Z,8.44
2018-12-21T02:23:42.368Z,8.50
2018-12-21T02:24:42.346Z,8.42
2018-12-21T02:25:42.321Z,8.42
2018-12-21T02:26:42.298Z,8.44
2018-12-21T02:27:42.273Z,8.49
2018-12-21T02:28:42.352Z,8.38
2018-12-21T02:29:42.225Z,8.49
2018-12-21T02:30:42.203Z,8.56
2018-12-21T02:31:42.198Z,8.57
2018-12-21T02:32:42.154Z,8.49
2018-12-21T02:33:42.129Z,8.46
2018-12-21T02:34:42.113Z,8.53
2018-12-21T02:35:42.084Z,8.46
2018-12-21T02:36:42.056Z,8.53
2018-12-21T02:37:42.033Z,8.53
2018-12-21T02:38:42.011Z,8.53
2018-12-21T02:39:41.986Z,8.59
2018-12-21T02:40:41.962Z,8.57
2018-12-21T02:41:41.938Z,8.53
2018-12-21T02:42:41.911Z,8.53
2018-12-21T02:43:41.890Z,8.56
2018-12-21T02:44:41.866Z,8.42
2018-12-21T02:45:41.842Z,8.54
2018-12-21T02:46:41.817Z,8.35
2018-12-21T02:47:41.792Z,8.53
2018-12-21T02:48:41.770Z,8.50
2018-12-21T02:49:41.746Z,8.49
2018-12-21T02:50:41.719Z,8.52
2018-12-21T02:51:41.699Z,8.53
2018-12-21T02:52:41.671Z,8.60
2018-12-21T02:53:41.651Z,8.52
2018-12-21T02:54:41.624Z,8.64
2018-12-21T02:55:41.600Z,8.68
2018-12-21T02:56:41.576Z,8.63
2018-12-21T02:57:41.550Z,8.60
2018-12-21T02:58:41.528Z,8.64
2018-12-21T02:59:41.503Z,8.63
2018-12-21T03:00:41.482Z,8.61
2018-12-21T03:01:41.457Z,8.66
2018-12-21T03:02:41.431Z,8.61
2018-12-21T03:03:41.406Z,8.68
2018-12-21T03:04:41.382Z,8.61
2018-12-21T03:05:41.359Z,8.66
2018-12-21T03:06:41.335Z,8.61
2018-12-21T03:07:41.333Z,8.63
2018-12-21T03:08:41.289Z,8.57
2018-12-21T03:09:41.264Z,8.66
2018-12-21T03:10:41.248Z,8.56
2018-12-21T03:11:41.216Z,8.66
2018-12-21T03:12:41.190Z,8.64
2018-12-21T03:13:41.167Z,8.69
2018-12-21T03:14:41.144Z,8.66
2018-12-21T03:15:41.123Z,8.68
2018-12-21T03:16:41.097Z,8.59
2018-12-21T03:17:41.072Z,8.61
2018-12-21T03:18:41.047Z,8.68
2018-12-21T03:19:41.025Z,8.64
2018-12-21T03:20:41.000Z,8.68
2018-12-21T03:21:40.977Z,8.63
2018-12-21T03:22:40.960Z,8.68
2018-12-21T03:23:40.929Z,8.68
2018-12-21T03:24:40.906Z,8.66
2018-12-21T03:25:40.880Z,8.63
2018-12-21T03:26:40.856Z,8.66
2018-12-21T03:27:40.833Z,8.66
2018-12-21T03:28:40.812Z,8.69
2018-12-21T03:29:40.786Z,8.61
2018-12-21T03:30:40.765Z,8.71
2018-12-21T03:31:40.872Z,8.68
2018-12-21T03:32:40.715Z,8.68
2018-12-21T03:33:40.689Z,8.71
2018-12-21T03:34:40.666Z,8.68
2018-12-21T03:35:40.645Z,8.69
2018-12-21T03:36:40.620Z,8.68
2018-12-21T03:37:40.599Z,8.68
2018-12-21T03:38:40.570Z,8.68
2018-12-21T03:39:40.547Z,8.71
2018-12-21T03:40:40.524Z,8.68
2018-12-21T03:41:40.498Z,8.63
2018-12-21T03:42:40.477Z,8.63
2018-12-21T03:43:40.451Z,8.59
2018-12-21T03:44:40.428Z,8.54
2018-12-21T03:45:40.404Z,8.60
2018-12-21T03:46:40.380Z,8.57
2018-12-21T03:47:40.356Z,8.52
2018-12-21T03:48:40.332Z,8.52
2018-12-21T03:49:40.380Z,8.54
2018-12-21T03:50:40.285Z,8.44
2018-12-21T03:51:40.263Z,8.38
2018-12-21T03:52:40.237Z,8.39
2018-12-21T03:53:40.218Z,8.41
2018-12-21T03:54:40.305Z,8.44
2018-12-21T03:55:40.167Z,8.50
2018-12-21T03:56:40.143Z,8.44
2018-12-21T03:57:40.118Z,8.39
2018-12-21T03:58:40.093Z,8.36
2018-12-21T03:59:40.071Z,8.44
2018-12-21T04:00:40.052Z,8.45
2018-12-21T04:01:40.183Z,8.41
2018-12-21T04:02:40.008Z,8.42
2018-12-21T04:03:39.978Z,8.44
2018-12-21T04:04:39.961Z,8.39
2018-12-21T04:05:39.931Z,8.44
2018-12-21T04:06:39.904Z,8.41
2018-12-21T04:07:39.882Z,8.45
2018-12-21T04:08:39.858Z,8.45
2018-12-21T04:09:39.835Z,8.41
2018-12-21T04:10:39.812Z,8.45
2018-12-21T04:11:39.798Z,8.39
2018-12-21T04:12:39.763Z,8.39
2018-12-21T04:13:39.739Z,8.39
2018-12-21T04:14:39.715Z,8.44
2018-12-21T04:15:39.695Z,8.39
2018-12-21T04:16:39.670Z,8.44
2018-12-21T04:17:39.651Z,8.42
2018-12-21T04:18:39.620Z,8.44
2018-12-21T04:19:39.597Z,8.42
2018-12-21T04:20:39.573Z,8.44
2018-12-21T04:21:39.548Z,8.34
2018-12-21T04:22:39.525Z,8.44
2018-12-21T04:23:39.536Z,8.41
2018-12-21T04:24:39.478Z,8.44
2018-12-21T04:25:39.455Z,8.42
2018-12-21T04:26:39.432Z,8.38
2018-12-21T04:27:39.409Z,8.34
2018-12-21T04:28:39.386Z,8.46
2018-12-21T04:29:39.359Z,8.38
2018-12-21T04:30:39.335Z,8.44
2018-12-21T04:31:39.311Z,8.45
2018-12-21T04:32:39.291Z,8.42
2018-12-21T04:33:39.264Z,8.54
2018-12-21T04:34:39.268Z,8.45
2018-12-21T04:35:39.219Z,8.50
2018-12-21T04:36:39.195Z,8.49
2018-12-21T04:37:39.170Z,8.52
2018-12-21T04:38:39.148Z,8.50
2018-12-21T04:39:39.122Z,8.46
2018-12-21T04:40:39.101Z,8.45
2018-12-21T04:41:39.075Z,8.41
2018-12-21T04:42:39.051Z,8.44
2018-12-21T04:43:39.030Z,8.59
2018-12-21T04:44:39.006Z,8.53
2018-12-21T04:45:38.980Z,8.41
2018-12-21T04:46:38.957Z,8.44
2018-12-21T04:47:38.935Z,8.46
2018-12-21T04:48:38.908Z,8.57
2018-12-21T04:49:38.885Z,8.54
2018-12-21T04:50:38.861Z,8.53
2018-12-21T04:51:38.838Z,8.50
2018-12-21T04:52:43.144Z,8.57
2018-12-21T04:53:38.794Z,8.54
2018-12-21T04:54:38.766Z,8.54
2018-12-21T04:55:38.867Z,8.66
2018-12-21T04:56:38.722Z,8.63
2018-12-21T04:57:38.697Z,8.68
2018-12-21T04:58:38.679Z,8.69
2018-12-21T04:59:38.649Z,8.61
2018-12-21T05:00:38.623Z,8.68
2018-12-21T05:01:38.608Z,8.64
2018-12-21T05:02:38.575Z,8.63
2018-12-21T05:03:38.555Z,8.78
2018-12-21T05:04:38.536Z,8.72
2018-12-21T05:05:39.567Z,8.79
2018-12-21T05:06:38.484Z,8.64
2018-12-21T05:07:38.457Z,8.69
2018-12-21T05:08:38.434Z,8.71
2018-12-21T05:09:38.409Z,8.72
2018-12-21T05:10:38.386Z,8.75
2018-12-21T05:11:38.364Z,8.75
2018-12-21T05:12:38.340Z,8.68
2018-12-21T05:13:38.316Z,8.78
2018-12-21T05:14:38.289Z,8.68
2018-12-21T05:15:38.268Z,8.71
2018-12-21T05:16:38.246Z,8.74
2018-12-21T05:17:38.219Z,8.78
2018-12-21T05:18:38.196Z,8.78
2018-12-21T05:19:38.173Z,8.68
2018-12-21T05:20:38.150Z,8.68
2018-12-21T05:21:38.125Z,8.69
2018-12-21T05:22:38.101Z,8.75
2018-12-21T05:23:38.077Z,8.72
2018-12-21T05:24:38.057Z,8.79
2018-12-21T05:25:38.029Z,8.77
2018-12-21T05:26:38.007Z,8.72
2018-12-21T05:27:37.984Z,8.68
2018-12-21T05:28:37.970Z,8.82
2018-12-21T05:29:39.610Z,8.79
2018-12-21T05:30:37.914Z,8.72
2018-12-21T05:31:37.889Z,8.81
2018-12-21T05:32:37.865Z,8.66
2018-12-21T05:33:37.841Z,8.74
2018-12-21T05:34:37.817Z,8.79
2018-12-21T05:35:37.794Z,8.69
2018-12-21T05:36:37.772Z,8.78
2018-12-21T05:37:37.746Z,8.75
2018-12-21T05:38:37.729Z,8.74
2018-12-21T05:39:37.698Z,8.69
2018-12-21T05:40:37.675Z,8.72
2018-12-21T05:41:37.652Z,8.72
2018-12-21T05:42:37.630Z,8.81
2018-12-21T05:43:37.605Z,8.82
2018-12-21T05:44:37.585Z,8.78
2018-12-21T05:45:37.562Z,8.77
2018-12-21T05:46:37.532Z,8.75
2018-12-21T05:47:37.524Z,8.71
2018-12-21T05:48:37.486Z,8.66
2018-12-21T05:49:37.463Z,8.72
2018-12-21T05:50:37.439Z,8.68
2018-12-21T05:51:37.414Z,8.68
2018-12-21T05:52:37.393Z,8.68
2018-12-21T05:53:37.366Z,8.64
2018-12-21T05:54:37.343Z,8.59
2018-12-21T05:55:37.319Z,8.64
2018-12-21T05:56:37.296Z,8.63
2018-12-21T05:57:37.272Z,8.68
2018-12-21T05:58:37.347Z,8.69
2018-12-21T05:59:37.224Z,8.77
2018-12-21T06:00:37.200Z,8.71
2018-12-21T06:01:37.175Z,8.79
2018-12-21T06:02:37.154Z,8.78
2018-12-21T06:03:37.131Z,8.74
2018-12-21T06:04:37.105Z,8.79
2018-12-21T06:05:37.080Z,8.82
2018-12-21T06:06:37.056Z,8.72
2018-12-21T06:07:37.033Z,8.77
2018-12-21T06:08:37.010Z,8.78
2018-12-21T06:09:36.986Z,8.74
2018-12-21T06:10:36.961Z,8.79
2018-12-21T06:11:36.939Z,8.84
2018-12-21T06:12:36.918Z,8.79
2018-12-21T06:13:36.891Z,8.79
2018-12-21T06:14:36.869Z,8.74
2018-12-21T06:15:36.846Z,8.74
2018-12-21T06:16:36.818Z,8.74
2018-12-21T06:17:36.794Z,8.86
2018-12-21T06:18:36.771Z,8.74
2018-12-21T06:19:36.748Z,8.77
2018-12-21T06:20:36.725Z,8.74
2018-12-21T06:21:36.699Z,8.77
2018-12-21T06:22:36.676Z,8.82
2018-12-21T06:23:36.653Z,8.75
2018-12-21T06:24:36.629Z,8.82
2018-12-21T06:25:36.611Z,8.82
2018-12-21T06:26:36.584Z,8.81
2018-12-21T06:27:36.559Z,8.81
2018-12-21T06:28:36.536Z,8.90
2018-12-21T06:29:36.513Z,8.86
2018-12-21T06:30:36.487Z,8.95
2018-12-21T06:31:36.463Z,8.90
2018-12-21T06:32:36.441Z,8.93
2018-12-21T06:33:36.418Z,8.90
2018-12-21T06:34:36.393Z,8.92
2018-12-21T06:35:36.371Z,8.92
2018-12-21T06:36:36.356Z,8.97
2018-12-21T06:37:36.322Z,8.95
2018-12-21T06:38:36.299Z,9.02
2018-12-21T06:39:36.277Z,8.89
2018-12-21T06:40:36.251Z,8.92
2018-12-21T06:41:36.247Z,8.97
2018-12-21T06:42:36.206Z,9.00
2018-12-21T06:43:36.181Z,8.92
2018-12-21T06:44:36.170Z,8.92
2018-12-21T06:45:36.132Z,8.97
2018-12-21T06:46:36.136Z,8.99
2018-12-21T06:47:36.086Z,8.92
2018-12-21T06:48:36.063Z,8.97
2018-12-21T06:49:36.038Z,8.95
2018-12-21T06:50:36.019Z,8.89
2018-12-21T06:51:35.994Z,8.89
2018-12-21T06:52:35.969Z,8.92
2018-12-21T06:53:35.944Z,8.92
2018-12-21T06:54:35.922Z,8.90
2018-12-21T06:55:35.896Z,8.93
2018-12-21T06:56:35.874Z,8.95
2018-12-21T06:57:35.858Z,8.81
2018-12-21T06:58:35.827Z,8.79
2018-12-21T06:59:35.802Z,8.86
2018-12-21T07:00:35.779Z,8.81
2018-12-21T07:01:35.774Z,8.87
2018-12-21T07:02:35.731Z,8.84
2018-12-21T07:03:35.708Z,8.87
2018-12-21T07:04:35.684Z,8.87
2018-12-21T07:05:35.658Z,8.86
2018-12-21T07:06:35.636Z,8.77
2018-12-21T07:07:35.612Z,8.71
2018-12-21T07:08:35.592Z,8.74
2018-12-21T07:09:35.564Z,8.75
2018-12-21T07:10:35.541Z,8.68
2018-12-21T07:11:35.518Z,8.72
2018-12-21T07:12:35.495Z,8.75
2018-12-21T07:13:35.470Z,8.69
2018-12-21T07:14:35.445Z,8.74
2018-12-21T07:15:35.422Z,8.74
2018-12-21T07:16:35.399Z,8.77
2018-12-21T07:17:35.374Z,8.79
2018-12-21T07:18:35.357Z,8.69
2018-12-21T07:19:35.328Z,8.79
2018-12-21T07:20:35.307Z,8.75
2018-12-21T07:21:35.280Z,8.78
2018-12-21T07:22:35.257Z,8.75
2018-12-21T07:23:35.234Z,8.75
2018-12-21T07:24:35.209Z,8.74
2018-12-21T07:25:35.185Z,8.72
2018-12-21T07:26:35.162Z,8.79
2018-12-21T07:27:35.154Z,8.78
2018-12-21T07:28:35.115Z,8.77
2018-12-21T07:29:35.092Z,8.77
2018-12-21T07:30:35.066Z,8.81
2018-12-21T07:31:35.043Z,8.79
2018-12-21T07:32:35.021Z,8.77
2018-12-21T07:33:34.996Z,8.71
2018-12-21T07:34:34.975Z,8.72
2018-12-21T07:35:34.951Z,8.68
2018-12-21T07:36:34.930Z,8.81
2018-12-21T07:37:34.904Z,8.72
2018-12-21T07:38:34.878Z,8.77
2018-12-21T07:39:34.856Z,8.82
2018-12-21T07:40:34.832Z,8.72
2018-12-21T07:41:34.807Z,8.74
2018-12-21T07:42:34.786Z,8.74
2018-12-21T07:43:34.761Z,8.69
2018-12-21T07:44:34.739Z,8.75
2018-12-21T07:45:34.711Z,8.75
2018-12-21T07:46:34.690Z,8.82
2018-12-21T07:47:34.669Z,8.79
2018-12-21T07:48:34.646Z,8.92
2018-12-21T07:49:34.619Z,8.90
2018-12-21T07:50:34.595Z,8.86
2018-12-21T07:51:34.576Z,8.86
2018-12-21T07:52:34.550Z,8.81
2018-12-21T07:53:35.854Z,8.81
2018-12-21T07:54:34.502Z,8.90
2018-12-21T07:55:34.481Z,8.82
2018-12-21T07:56:34.456Z,8.81
2018-12-21T07:57:34.431Z,8.84
2018-12-21T07:58:34.409Z,8.82
2018-12-21T07:59:34.388Z,8.89
2018-12-21T08:00:34.362Z,8.81
2018-12-21T08:01:34.339Z,8.77
2018-12-21T08:02:34.320Z,8.79
2018-12-21T08:03:34.291Z,8.84
2018-12-21T08:04:34.269Z,8.84
2018-12-21T08:05:34.245Z,8.79
2018-12-21T08:06:34.221Z,8.86
2018-12-21T08:07:34.200Z,8.82
2018-12-21T08:08:34.177Z,8.87
2018-12-21T08:09:34.152Z,8.92
2018-12-21T08:10:34.130Z,8.90
2018-12-21T08:11:34.104Z,8.97
2018-12-21T08:12:34.082Z,8.93
2018-12-21T08:13:34.056Z,8.95
2018-12-21T08:14:34.034Z,8.92
2018-12-21T08:15:34.013Z,8.92
2018-12-21T08:16:33.988Z,8.92
2018-12-21T08:17:33.964Z,8.97
2018-12-21T08:18:33.943Z,8.92
2018-12-21T08:19:33.918Z,8.90
2018-12-21T08:20:33.895Z,8.95
2018-12-21T08:21:33.871Z,8.92
2018-12-21T08:22:33.848Z,8.93
2018-12-21T08:23:33.825Z,8.93
2018-12-21T08:24:33.801Z,8.96
2018-12-21T08:25:33.831Z,9.00
2018-12-21T08:26:33.760Z,9.02
2018-12-21T08:27:33.733Z,8.95
2018-12-21T08:28:33.709Z,8.97
2018-12-21T08:31:01.534Z,8.95
2018-12-21T08:32:01.476Z,9.02
2018-12-21T08:33:54.845Z,8.95
2018-12-21T08:34:54.796Z,9.09
2018-12-21T08:36:48.157Z,9.02
2018-12-21T08:37:48.104Z,9.08
2018-12-21T08:39:41.484Z,9.00
2018-12-21T08:40:41.427Z,9.03
2018-12-21T08:42:34.870Z,9.08
2018-12-21T08:43:34.749Z,9.08
2018-12-21T08:45:28.100Z,9.18
2018-12-21T08:46:28.047Z,9.11
2018-12-21T08:48:22.389Z,9.13
2018-12-21T08:49:22.358Z,9.15
2018-12-21T08:51:15.730Z,9.15
2018-12-21T08:52:15.668Z,9.18
2018-12-21T08:54:09.006Z,9.16
2018-12-21T08:55:08.971Z,9.19
2018-12-21T08:57:02.354Z,9.24
2018-12-21T08:58:02.298Z,9.21
2018-12-21T08:59:55.660Z,9.24
2018-12-21T09:00:55.603Z,9.24
2018-12-21T09:02:48.945Z,9.26
2018-12-21T09:03:48.917Z,9.24
2018-12-21T09:04:48.889Z,9.21
2018-12-21T09:05:48.865Z,9.19
2018-12-21T09:06:48.842Z,9.33
2018-12-21T09:07:48.820Z,9.19
2018-12-21T09:08:48.863Z,9.21
2018-12-21T09:09:48.773Z,9.19
2018-12-21T09:10:48.750Z,9.36
2018-12-21T09:11:48.729Z,9.36
2018-12-21T09:12:48.704Z,9.45
2018-12-21T09:13:48.726Z,9.31
2018-12-21T09:14:48.656Z,9.31
2018-12-21T09:15:48.633Z,9.37
2018-12-21T09:16:48.612Z,9.40
2018-12-21T09:17:48.587Z,9.33
2018-12-21T09:18:48.573Z,9.37
2018-12-21T09:19:48.545Z,9.34
2018-12-21T09:20:48.516Z,9.29
2018-12-21T09:21:48.506Z,9.42
2018-12-21T09:22:48.474Z,9.40
2018-12-21T09:23:48.446Z,9.33
2018-12-21T09:24:48.426Z,9.40
2018-12-21T09:25:48.400Z,9.36
2018-12-21T09:26:48.379Z,9.37
2018-12-21T09:27:48.359Z,9.40
2018-12-21T09:28:48.331Z,9.36
2018-12-21T09:29:48.307Z,9.36
2018-12-21T09:30:48.291Z,9.33
2018-12-21T09:31:48.287Z,9.45
2018-12-21T09:32:48.244Z,9.40
2018-12-21T09:33:48.215Z,9.40
2018-12-21T09:34:48.194Z,9.36
2018-12-21T09:35:48.173Z,9.39
2018-12-21T09:36:48.148Z,9.39
2018-12-21T09:37:48.125Z,9.33
2018-12-21T09:38:48.101Z,9.37
2018-12-21T09:39:48.076Z,9.40
2018-12-21T09:40:48.054Z,9.40
2018-12-21T09:41:48.033Z,9.44
2018-12-21T09:42:48.008Z,9.47
2018-12-21T09:43:47.985Z,9.44
2018-12-21T09:44:52.531Z,9.54
2018-12-21T09:45:47.937Z,9.49
2018-12-21T09:46:47.914Z,9.49
2018-12-21T09:47:47.893Z,9.49
2018-12-21T09:48:47.871Z,9.44
2018-12-21T09:49:47.845Z,9.52
2018-12-21T09:50:47.821Z,9.47
2018-12-21T09:51:47.801Z,9.44
2018-12-21T09:52:47.775Z,9.49
2018-12-21T09:53:47.755Z,9.49
2018-12-21T09:54:47.727Z,9.51
2018-12-21T09:55:47.716Z,9.54
2018-12-21T09:56:47.681Z,9.55
2018-12-21T09:57:47.660Z,9.49
2018-12-21T09:58:47.639Z,9.54
2018-12-21T09:59:47.618Z,9.51
2018-12-21T10:00:47.589Z,9.56
2018-12-21T10:01:47.569Z,9.49
2018-12-21T10:02:47.544Z,9.55
2018-12-21T10:03:47.521Z,9.52
2018-12-21T10:04:47.497Z,9.49
2018-12-21T10:05:47.474Z,9.62
2018-12-21T10:06:47.451Z,9.67
2018-12-21T10:07:47.427Z,9.66
2018-12-21T10:08:47.404Z,9.66
2018-12-21T10:09:47.381Z,9.62
2018-12-21T10:10:47.358Z,9.66
2018-12-21T10:11:47.337Z,9.66
2018-12-21T10:12:47.313Z,9.62
2018-12-21T10:13:47.295Z,9.67
2018-12-21T10:14:47.268Z,9.63
2018-12-21T10:15:47.244Z,9.66
2018-12-21T10:16:47.220Z,9.72
2018-12-21T10:17:47.198Z,9.66
2018-12-21T10:18:47.176Z,9.70
2018-12-21T10:19:47.154Z,9.66
2018-12-21T10:20:47.128Z,9.70
2018-12-21T10:21:47.107Z,9.66
2018-12-21T10:22:47.081Z,9.70
2018-12-21T10:23:47.059Z,9.66
2018-12-21T10:24:47.037Z,9.76
2018-12-21T10:25:47.021Z,9.72
2018-12-21T10:26:46.993Z,9.73
2018-12-21T10:27:46.967Z,9.73
2018-12-21T10:28:46.944Z,9.77
2018-12-21T10:29:46.922Z,9.80
2018-12-21T10:30:46.900Z,9.76
2018-12-21T10:31:46.877Z,9.85
2018-12-21T10:32:46.854Z,9.80
2018-12-21T10:33:46.830Z,9.88
2018-12-21T10:34:46.806Z,9.80
2018-12-21T10:35:46.786Z,9.82
2018-12-21T10:36:46.763Z,9.81
2018-12-21T10:37:46.737Z,9.82
2018-12-21T10:38:46.819Z,9.80
2018-12-21T10:39:46.695Z,9.81
2018-12-21T10:40:46.682Z,9.82
2018-12-21T10:41:46.647Z,9.82
2018-12-21T10:42:46.624Z,9.82
2018-12-21T10:43:46.814Z,9.85
2018-12-21T10:44:46.634Z,9.88
2018-12-21T10:45:46.554Z,9.88
2018-12-21T10:46:46.552Z,9.90
2018-12-21T10:47:46.511Z,9.92
2018-12-21T10:48:46.487Z,9.88
2018-12-21T10:49:46.464Z,9.90
2018-12-21T10:50:46.439Z,9.87
2018-12-21T10:51:46.416Z,9.90
2018-12-21T10:52:46.401Z,9.87
2018-12-21T10:53:46.830Z,9.90
2018-12-21T10:54:46.369Z,9.91
2018-12-21T10:55:46.327Z,9.90
2018-12-21T10:56:46.300Z,9.95
2018-12-21T10:57:46.277Z,9.91
2018-12-21T10:58:46.254Z,9.94
2018-12-21T10:59:46.233Z,9.90
2018-12-21T11:00:46.213Z,9.95
2018-12-21T11:01:46.188Z,9.92
2018-12-21T11:02:46.164Z,9.90
2018-12-21T11:03:46.139Z,10.00
2018-12-21T11:04:46.130Z,10.00
2018-12-21T11:05:46.095Z,10.07
2018-12-21T11:06:46.072Z,10.00
2018-12-21T11:07:46.049Z,10.00
2018-12-21T11:08:46.029Z,9.99
2018-12-21T11:09:46.004Z,9.99
2018-12-21T11:10:46.004Z,10.09
2018-12-21T11:11:45.957Z,10.00
2018-12-21T11:12:45.933Z,10.02
2018-12-21T11:13:45.911Z,10.10
2018-12-21T11:14:45.888Z,10.09
2018-12-21T11:15:45.866Z,10.18
2018-12-21T11:16:45.842Z,10.17
2018-12-21T11:17:45.824Z,10.17
2018-12-21T11:18:45.798Z,10.24
2018-12-21T11:19:45.773Z,10.21
2018-12-21T11:20:45.752Z,10.27
2018-12-21T11:21:45.729Z,10.36
2018-12-21T11:22:45.705Z,10.33
2018-12-21T11:23:45.682Z,10.33
2018-12-21T11:24:45.660Z,10.31
2018-12-21T11:25:45.666Z,10.36
2018-12-21T11:26:45.615Z,10.34
2018-12-21T11:27:45.592Z,10.42
2018-12-21T11:28:45.569Z,10.41
2018-12-21T11:29:45.549Z,10.42
2018-12-21T11:30:45.527Z,10.39
2018-12-21T11:31:45.503Z,10.42
2018-12-21T11:32:45.480Z,10.55
2018-12-21T11:33:45.457Z,10.55
2018-12-21T11:34:45.436Z,10.53
2018-12-21T11:35:45.411Z,10.64
2018-12-21T11:36:45.389Z,10.59
2018-12-21T11:37:45.453Z,10.65
2018-12-21T11:38:45.342Z,10.65
2018-12-21T11:39:45.321Z,10.75
2018-12-21T11:40:45.297Z,10.71
2018-12-21T11:41:45.276Z,10.77
2018-12-21T11:42:45.253Z,10.80
2018-12-21T11:43:45.231Z,10.76
2018-12-21T11:44:45.207Z,10.80
2018-12-21T11:45:45.186Z,10.79
2018-12-21T11:46:45.162Z,10.86
2018-12-21T11:47:45.140Z,10.87
2018-12-21T11:48:45.118Z,10.92
2018-12-21T11:49:45.096Z,10.86
2018-12-21T11:50:45.072Z,10.92
2018-12-21T11:51:45.053Z,10.92
2018-12-21T11:52:45.028Z,10.92
2018-12-21T11:53:45.007Z,11.02
2018-12-21T11:54:44.982Z,10.98
2018-12-21T11:55:44.961Z,11.08
2018-12-21T11:56:44.942Z,11.10
2018-12-21T11:57:44.916Z,11.02
2018-12-21T11:58:44.897Z,11.10
2018-12-21T11:59:45.287Z,11.04
2018-12-21T12:00:44.850Z,11.10
2018-12-21T12:01:44.830Z,11.12
2018-12-21T12:02:44.804Z,11.16
2018-12-21T12:03:44.784Z,11.15
2018-12-21T12:04:44.763Z,11.16
2018-12-21T12:05:44.737Z,11.19
2018-12-21T12:06:44.719Z,11.16
2018-12-21T12:07:44.693Z,11.18
2018-12-21T12:08:44.672Z,11.19
2018-12-21T12:09:44.650Z,11.19
2018-12-21T12:10:44.631Z,11.26
2018-12-21T12:11:44.605Z,11.22
2018-12-21T12:12:44.587Z,11.31
2018-12-21T12:13:44.562Z,11.30
2018-12-21T12:14:44.539Z,11.33
2018-12-21T12:15:44.516Z,11.37
2018-12-21T12:16:44.494Z,11.44
2018-12-21T12:17:44.473Z,11.40
2018-12-21T12:18:44.450Z,11.52
2018-12-21T12:19:44.432Z,11.56
2018-12-21T12:20:44.408Z,11.48
2018-12-21T12:21:44.385Z,11.51
2018-12-21T12:22:44.361Z,11.56
2018-12-21T12:23:44.340Z,11.58
2018-12-21T12:24:52.587Z,11.67
2018-12-21T12:25:44.296Z,11.70
2018-12-21T12:26:44.736Z,11.71
2018-12-21T12:27:44.251Z,11.71
2018-12-21T12:28:44.235Z,11.76
2018-12-21T12:29:44.209Z,11.74
2018-12-21T12:30:44.249Z,11.83
2018-12-21T12:31:44.170Z,11.86
2018-12-21T12:32:44.150Z,11.88
2018-12-21T12:33:44.122Z,11.93
2018-12-21T12:34:44.114Z,11.89
2018-12-21T12:35:44.086Z,11.88
2018-12-21T12:36:44.111Z,11.86
2018-12-21T12:37:44.036Z,11.93
2018-12-21T12:38:44.012Z,11.89
2018-12-21T12:39:43.992Z,11.97
2018-12-21T12:40:43.969Z,11.91
2018-12-21T12:41:43.946Z,11.95
2018-12-21T12:42:43.925Z,11.97
2018-12-21T12:43:43.925Z,12.07
2018-12-21T12:44:43.884Z,12.05
2018-12-21T12:45:43.860Z,11.96
2018-12-21T12:46:43.837Z,12.02
2018-12-21T12:47:43.817Z,12.05
2018-12-21T12:48:43.794Z,12.12
2018-12-21T12:49:43.804Z,12.11
2018-12-21T12:50:43.750Z,12.12
2018-12-21T12:51:43.730Z,12.12
2018-12-21T12:52:43.711Z,12.20
2018-12-21T12:53:43.687Z,12.21
2018-12-21T12:54:43.664Z,12.25
2018-12-21T12:55:43.648Z,12.28
2018-12-21T12:56:43.623Z,12.20
2018-12-21T12:57:43.603Z,12.23
2018-12-21T12:58:43.578Z,12.28
2018-12-21T12:59:43.558Z,12.26
2018-12-21T13:00:43.537Z,12.25
2018-12-21T13:01:43.515Z,12.25
2018-12-21T13:02:43.493Z,12.20
2018-12-21T13:03:43.472Z,12.33
2018-12-21T13:04:43.451Z,12.40
2018-12-21T13:05:43.431Z,12.33
2018-12-21T13:06:43.411Z,12.39
2018-12-21T13:07:43.387Z,12.43
2018-12-21T13:08:43.367Z,12.55
2018-12-21T13:09:43.346Z,12.61
2018-12-21T13:10:43.322Z,12.53
2018-12-21T13:11:43.303Z,12.54
2018-12-21T13:12:43.281Z,12.54
2018-12-21T13:13:43.260Z,12.62
2018-12-21T13:14:43.239Z,12.63
2018-12-21T13:15:43.218Z,12.50
2018-12-21T13:16:43.198Z,12.62
2018-12-21T13:17:43.177Z,12.58
2018-12-21T13:18:43.153Z,12.70
2018-12-21T13:19:43.133Z,12.68
2018-12-21T13:20:43.110Z,12.76
2018-12-21T13:21:43.091Z,12.70
2018-12-21T13:22:43.067Z,12.78
2018-12-21T13:23:43.049Z,12.84
2018-12-21T13:24:43.028Z,12.86